createdAt,value
2022-11-24T00:00:53.354Z,95467.44
2022-11-24T00:05:06.141Z,95467.13
2022-11-24T00:09:28.399Z,95466.53
2022-11-24T00:13:43.252Z,95476.72
2022-11-24T00:17:55.478Z,95475.97
2022-11-24T00:22:07.684Z,95475.19
2022-11-24T00:26:25.766Z,95487.53
2022-11-24T00:30:38.087Z,95484.38
2022-11-24T00:34:50.340Z,95483.13
2022-11-24T00:39:05.832Z,95502.66
2022-11-24T00:43:18.472Z,95521.44
2022-11-24T00:47:33.556Z,95514.41
2022-11-24T00:51:45.792Z,95530.88
2022-11-24T00:55:58.366Z,95535.47
2022-11-24T01:00:10.953Z,95547.94
2022-11-24T01:04:23.265Z,95564.13
2022-11-24T01:08:38.344Z,95568.41
2022-11-24T01:12:51.071Z,95581.66
2022-11-24T01:17:03.368Z,95576.78
2022-11-24T01:21:16.746Z,95593.25
2022-11-24T01:25:29.892Z,95599.69
2022-11-24T01:29:42.131Z,95595.66
2022-11-24T01:33:55.205Z,95599.75
2022-11-24T01:38:07.474Z,95594.09
2022-11-24T01:42:19.784Z,95608.84
2022-11-24T01:46:45.664Z,95616.47
2022-11-24T01:51:17.090Z,95635.38
2022-11-24T01:55:36.903Z,95639.97
2022-11-24T01:59:52.572Z,95639.50
2022-11-24T02:04:08.949Z,95646.34
2022-11-24T02:08:41.768Z,95645.72
2022-11-24T02:12:56.764Z,95654.53
2022-11-24T02:17:09.474Z,95669.38
2022-11-24T02:21:21.739Z,95671.59
2022-11-24T02:25:49.253Z,95660.94
2022-11-24T02:30:01.676Z,95676.00
2022-11-24T02:34:13.932Z,95667.41
2022-11-24T02:38:34.028Z,95676.13
2022-11-24T02:42:47.556Z,95678.72
2022-11-24T02:47:09.363Z,95689.97
2022-11-24T02:51:21.842Z,95690.47
2022-11-24T02:55:34.073Z,95697.75
2022-11-24T02:59:47.356Z,95696.97
2022-11-24T03:04:00.146Z,95700.28
2022-11-24T03:08:13.732Z,95701.06
2022-11-24T03:12:26.009Z,95701.09
2022-11-24T03:16:38.277Z,95713.75
2022-11-24T03:20:50.514Z,95707.53
2022-11-24T03:25:02.769Z,95718.97
2022-11-24T03:29:15.057Z,95719.09
2022-11-24T03:33:27.277Z,95732.69
2022-11-24T03:37:39.520Z,95729.38
2022-11-24T03:41:54.450Z,95721.88
2022-11-24T03:46:06.818Z,95727.81
2022-11-24T03:50:19.221Z,95730.75
2022-11-24T03:54:31.558Z,95748.28
2022-11-24T03:58:43.969Z,95751.81
2022-11-24T04:02:56.276Z,95753.91
2022-11-24T04:07:08.651Z,95760.19
2022-11-24T04:11:39.767Z,95766.59
2022-11-24T04:15:52.936Z,95769.66
2022-11-24T04:20:06.111Z,95770.91
2022-11-24T04:24:18.374Z,95774.38
2022-11-24T04:28:30.598Z,95771.25
2022-11-24T04:32:42.833Z,95774.59
2022-11-24T04:36:55.195Z,95777.00
2022-11-24T04:41:07.413Z,95774.59
2022-11-24T04:45:19.643Z,95778.09
2022-11-24T04:49:32.111Z,95783.19
2022-11-24T04:53:51.605Z,95789.38
2022-11-24T04:58:04.204Z,95780.69
2022-11-24T05:02:16.715Z,95789.69
2022-11-24T05:06:29.071Z,95800.53
2022-11-24T05:10:41.476Z,95806.84
2022-11-24T05:14:53.707Z,95807.63
2022-11-24T05:19:05.947Z,95821.97
2022-11-24T05:23:18.332Z,95832.34
2022-11-24T05:27:30.610Z,95825.00
2022-11-24T05:31:42.858Z,95830.16
2022-11-24T05:35:55.574Z,95845.28
2022-11-24T05:40:08.366Z,95841.47
2022-11-24T05:44:20.594Z,95850.31
2022-11-24T05:48:32.817Z,95845.38
2022-11-24T05:52:45.187Z,95855.03
2022-11-24T05:56:57.447Z,95854.25
2022-11-24T06:01:09.756Z,95857.31
2022-11-24T06:05:22.530Z,95862.03
2022-11-24T06:09:38.041Z,95881.44
2022-11-24T06:13:50.401Z,95874.72
2022-11-24T06:18:02.768Z,95882.28
2022-11-24T06:22:15.000Z,95897.41
2022-11-24T06:26:27.480Z,95889.91
2022-11-24T06:30:39.687Z,95902.00
2022-11-24T06:34:51.945Z,95901.72
2022-11-24T06:39:05.022Z,95907.06
2022-11-24T06:43:17.241Z,95909.53
2022-11-24T06:47:29.487Z,95906.34
2022-11-24T06:51:42.735Z,95926.72
2022-11-24T06:55:59.700Z,95930.81
2022-11-24T07:00:12.639Z,95925.09
2022-11-24T07:04:24.855Z,95921.44
2022-11-24T07:08:37.232Z,95928.97
2022-11-24T07:12:49.476Z,95927.56
2022-11-24T07:17:11.828Z,95920.28
2022-11-24T07:21:25.974Z,95925.97
2022-11-24T07:25:38.844Z,95920.19
2022-11-24T07:29:51.108Z,95939.19
2022-11-24T07:34:03.402Z,95939.66
2022-11-24T07:38:16.052Z,95937.47
2022-11-24T07:42:28.500Z,95940.53
2022-11-24T07:46:40.734Z,95947.81
2022-11-24T07:50:56.109Z,95943.88
2022-11-24T07:55:09.282Z,95951.84
2022-11-24T07:59:21.656Z,95944.28
2022-11-24T08:03:33.931Z,95948.72
2022-11-24T08:07:46.194Z,95939.84
2022-11-24T08:11:58.560Z,95941.44
2022-11-24T08:16:13.338Z,95932.00
2022-11-24T08:20:25.736Z,95940.00
2022-11-24T08:24:38.447Z,95936.97
2022-11-24T08:28:55.255Z,95936.16
2022-11-24T08:33:07.576Z,95947.72
2022-11-24T08:37:19.816Z,95938.81
2022-11-24T08:41:32.490Z,95950.97
2022-11-24T08:45:44.773Z,95951.63
2022-11-24T08:49:57.048Z,95959.72
2022-11-24T08:54:10.960Z,95961.56
2022-11-24T08:58:23.183Z,95957.75
2022-11-24T09:02:35.624Z,95949.91
2022-11-24T09:06:47.888Z,95950.25
2022-11-24T09:11:05.383Z,95943.19
2022-11-24T09:15:17.873Z,95945.66
2022-11-24T09:19:30.290Z,95934.47
2022-11-24T09:23:43.127Z,95943.97
2022-11-24T09:27:55.613Z,95947.63
2022-11-24T09:32:07.823Z,95951.75
2022-11-24T09:36:30.179Z,95948.75
2022-11-24T09:40:42.415Z,95956.50
2022-11-24T09:45:35.699Z,95950.84
2022-11-24T09:50:00.354Z,95951.66
2022-11-24T09:54:19.766Z,95940.47
2022-11-24T09:58:43.213Z,95954.44
2022-11-24T10:02:55.572Z,95959.97
2022-11-24T10:07:34.562Z,95973.06
2022-11-24T10:12:11.143Z,95966.34
2022-11-24T10:16:59.907Z,95974.28
2022-11-24T10:21:35.596Z,95978.47
2022-11-24T10:26:01.931Z,95980.56
2022-11-24T10:30:24.800Z,95988.97
2022-11-24T10:34:46.131Z,96004.41
2022-11-24T10:39:18.271Z,96008.78
2022-11-24T10:43:30.977Z,96014.03
2022-11-24T10:47:44.611Z,96025.25
2022-11-24T10:52:09.061Z,96044.56
2022-11-24T10:56:21.332Z,96021.97
2022-11-24T11:00:35.002Z,96015.97
2022-11-24T11:04:47.269Z,96012.69
2022-11-24T11:09:08.372Z,96013.84
2022-11-24T11:13:32.034Z,96014.06
2022-11-24T11:17:45.664Z,96014.91
2022-11-24T11:22:27.322Z,96012.88
2022-11-24T11:26:40.233Z,96022.84
2022-11-24T11:31:22.402Z,96019.53
2022-11-24T11:35:34.942Z,96020.50
2022-11-24T11:39:49.620Z,96026.22
2022-11-24T11:44:14.931Z,96023.34
2022-11-24T11:48:43.235Z,96023.50
2022-11-24T11:53:05.945Z,96027.22
2022-11-24T11:57:46.797Z,96032.34
2022-11-24T12:02:22.590Z,96026.13
2022-11-24T12:06:57.830Z,96034.94
2022-11-24T12:11:19.352Z,96054.97
2022-11-24T12:15:40.336Z,96049.22
2022-11-24T12:20:18.692Z,96054.97
2022-11-24T12:24:49.187Z,96052.41
2022-11-24T12:29:24.824Z,96062.34
2022-11-24T12:34:04.164Z,96062.75
2022-11-24T12:38:32.822Z,96057.72
2022-11-24T12:43:13.643Z,96071.09
2022-11-24T12:47:42.621Z,96065.59
2022-11-24T12:52:48.502Z,96056.44
2022-11-24T12:57:08.626Z,96073.31
2022-11-24T13:01:41.291Z,96061.16
2022-11-24T13:06:15.298Z,96065.53
2022-11-24T13:15:43.391Z,96071.88
2022-11-24T13:19:50.116Z,96086.84
2022-11-24T13:24:21.300Z,96084.22
2022-11-24T13:29:12.960Z,96087.44
2022-11-24T13:33:32.837Z,96093.06
2022-11-24T13:37:47.656Z,96085.94
2022-11-24T13:42:01.096Z,96084.56
2022-11-24T13:46:13.458Z,96087.63
2022-11-24T13:50:51.847Z,96092.84
2022-11-24T13:55:13.407Z,96098.78
2022-11-24T13:59:35.280Z,96093.91
2022-11-24T14:08:39.162Z,96108.84
2022-11-24T14:13:24.750Z,96118.41
2022-11-24T14:17:38.345Z,96111.47
2022-11-24T14:21:50.648Z,96124.50
2022-11-24T14:26:03.051Z,96133.31
2022-11-24T14:30:15.474Z,96121.28
2022-11-24T14:34:30.558Z,96120.06
2022-11-24T14:38:43.627Z,96124.66
2022-11-24T14:42:55.953Z,96145.44
2022-11-24T14:47:14.685Z,96146.88
2022-11-24T14:51:32.151Z,96153.31
2022-11-24T14:55:44.459Z,96143.00
2022-11-24T15:00:09.834Z,96160.56
2022-11-24T15:05:00.976Z,96160.25
2022-11-24T15:08:58.399Z,96167.38
2022-11-24T15:13:25.766Z,96167.50
2022-11-24T15:17:38.147Z,96166.84
2022-11-24T15:21:51.469Z,96160.16
2022-11-24T15:26:03.746Z,96170.78
2022-11-24T15:30:16.064Z,96184.03
2022-11-24T15:34:29.492Z,96185.13
2022-11-24T15:38:41.776Z,96190.84
2022-11-24T15:42:56.109Z,96195.22
2022-11-24T15:47:09.667Z,96192.41
2022-11-24T15:51:27.435Z,96199.47
2022-11-24T15:55:41.455Z,96202.88
2022-11-24T15:59:54.071Z,96205.88
2022-11-24T16:04:06.356Z,96212.06
2022-11-24T16:08:18.778Z,96223.09
2022-11-24T16:12:31.103Z,96219.53
2022-11-24T16:16:43.464Z,96226.56
2022-11-24T16:20:55.927Z,96247.50
2022-11-24T16:25:08.638Z,96240.63
2022-11-24T16:29:21.763Z,96239.94
2022-11-24T16:33:34.044Z,96247.03
2022-11-24T16:37:56.364Z,96247.38
2022-11-24T16:42:08.732Z,96256.25
2022-11-24T16:46:22.681Z,96267.06
2022-11-24T16:50:35.042Z,96247.66
2022-11-24T16:54:48.347Z,96239.19
2022-11-24T16:59:00.637Z,96243.34
2022-11-24T17:03:12.899Z,96243.66
2022-11-24T17:07:25.215Z,96241.13
2022-11-24T17:11:37.863Z,96245.50
2022-11-24T17:15:54.120Z,96241.84
2022-11-24T17:20:07.648Z,96240.31
2022-11-24T17:24:19.915Z,96243.41
2022-11-24T17:28:32.579Z,96251.69
2022-11-24T17:32:44.828Z,96251.09
2022-11-24T17:36:57.295Z,96264.09
2022-11-24T17:41:09.714Z,96263.22
2022-11-24T17:45:26.895Z,96260.56
2022-11-24T17:49:39.249Z,96261.41
2022-11-24T17:53:53.055Z,96259.28
2022-11-24T17:58:05.406Z,96255.28
2022-11-24T18:02:17.744Z,96262.22
2022-11-24T18:06:30.344Z,96260.69
2022-11-24T18:10:42.615Z,96254.78
2022-11-24T18:14:57.615Z,96264.69
2022-11-24T18:19:11.611Z,96264.56
2022-11-24T18:23:24.847Z,96266.72
2022-11-24T18:27:37.149Z,96260.63
2022-11-24T18:31:49.497Z,96265.44
2022-11-24T18:36:02.846Z,96261.69
2022-11-24T18:40:17.057Z,96264.25
2022-11-24T18:44:29.324Z,96261.19
2022-11-24T18:48:42.377Z,96261.13
2022-11-24T18:52:54.954Z,96264.16
2022-11-24T18:57:07.239Z,96258.72
2022-11-24T19:01:21.997Z,96255.25
2022-11-24T19:05:35.463Z,96257.03
2022-11-24T19:09:48.434Z,96254.09
2022-11-24T19:14:02.297Z,96250.84
2022-11-24T19:18:14.603Z,96252.09
2022-11-24T19:22:26.857Z,96250.38
2022-11-24T19:26:39.774Z,96256.63
2022-11-24T19:30:52.089Z,96262.97
2022-11-24T19:35:04.694Z,96251.84
2022-11-24T19:39:17.538Z,96243.00
2022-11-24T19:43:30.789Z,96250.84
2022-11-24T19:47:43.182Z,96258.44
2022-11-24T19:51:55.518Z,96270.25
2022-11-24T19:56:17.062Z,96265.44
2022-11-24T20:00:32.127Z,96264.09
2022-11-24T20:04:44.625Z,96270.16
2022-11-24T20:08:58.919Z,96263.59
2022-11-24T20:13:11.197Z,96274.56
2022-11-24T20:17:23.500Z,96269.69
2022-11-24T20:21:37.282Z,96279.53
2022-11-24T20:25:49.751Z,96271.34
2022-11-24T20:30:04.590Z,96273.91
2022-11-24T20:34:17.386Z,96269.47
2022-11-24T20:38:31.798Z,96266.84
2022-11-24T20:42:44.109Z,96267.75
2022-11-24T20:46:58.860Z,96274.06
2022-11-24T20:51:14.638Z,96269.91
2022-11-24T20:55:26.902Z,96263.31
2022-11-24T20:59:39.194Z,96256.44
2022-11-24T21:03:57.707Z,96266.22
2022-11-24T21:08:10.013Z,96255.88
2022-11-24T21:12:22.298Z,96252.72
2022-11-24T21:16:36.699Z,96250.06
2022-11-24T21:20:49.228Z,96265.69
2022-11-24T21:25:01.573Z,96267.75
2022-11-24T21:29:15.735Z,96260.44
2022-11-24T21:33:28.027Z,96246.59
2022-11-24T21:37:40.353Z,96259.00
2022-11-24T21:41:52.659Z,96242.72
2022-11-24T21:46:07.909Z,96260.97
2022-11-24T21:50:20.241Z,96241.88
2022-11-24T21:54:32.853Z,96245.78
2022-11-24T21:58:48.039Z,96265.16
2022-11-24T22:03:10.299Z,96251.25
2022-11-24T22:07:22.988Z,96244.97
2022-11-24T22:11:35.320Z,96262.91
2022-11-24T22:15:47.631Z,96256.03
2022-11-24T22:19:59.967Z,96251.25
2022-11-24T22:24:12.510Z,96273.50
2022-11-24T22:28:36.016Z,96269.50
2022-11-24T22:32:48.310Z,96257.97
2022-11-24T22:37:00.578Z,96262.25
2022-11-24T22:41:18.314Z,96259.53
2022-11-24T22:45:30.632Z,96258.13
2022-11-24T22:49:43.043Z,96253.78
2022-11-24T22:53:58.390Z,96258.06
2022-11-24T22:58:10.786Z,96253.78
2022-11-24T23:02:23.095Z,96254.94
2022-11-24T23:06:35.403Z,96249.13
2022-11-24T23:10:47.869Z,96249.91
2022-11-24T23:15:00.583Z,96253.72
2022-11-24T23:19:13.355Z,96249.81
2022-11-24T23:23:25.647Z,96254.50
2022-11-24T23:27:38.000Z,96246.78
2022-11-24T23:31:50.282Z,96253.03
2022-11-24T23:36:04.842Z,96258.50
2022-11-24T23:40:18.043Z,96251.91
2022-11-24T23:44:30.326Z,96250.75
2022-11-24T23:48:42.797Z,96245.31
2022-11-24T23:52:55.214Z,96239.88
2022-11-24T23:57:07.499Z,96222.81
